sensor_id;sensor_type;location;lat;lon;timestamp;temperature;humidity
12089;DHT22;6107;49.078;8.578;2023-04-03T00:00:53;5.60;99.90
12089;DHT22;6107;49.078;8.578;2023-04-03T00:03:19;5.70;99.90
12089;DHT22;6107;49.078;8.578;2023-04-03T00:05:45;5.70;99.90
12089;DHT22;6107;49.078;8.578;2023-04-03T00:08:11;5.70;99.90
12089;DHT22;6107;49.078;8.578;2023-04-03T00:10:37;5.70;99.90
12089;DHT22;6107;49.078;8.578;2023-04-03T00:13:04;5.60;99.90
12089;DHT22;6107;49.078;8.578;2023-04-03T00:15:30;5.60;99.90
12089;DHT22;6107;49.078;8.578;2023-04-03T00:17:56;5.60;99.90
12089;DHT22;6107;49.078;8.578;2023-04-03T00:20:21;5.60;99.90
12089;DHT22;6107;49.078;8.578;2023-04-03T00:22:47;5.60;99.90
12089;DHT22;6107;49.078;8.578;2023-04-03T00:25:12;5.60;99.90
12089;DHT22;6107;49.078;8.578;2023-04-03T00:27:38;5.60;99.90
12089;DHT22;6107;49.078;8.578;2023-04-03T00:30:06;5.50;99.90
12089;DHT22;6107;49.078;8.578;2023-04-03T00:32:32;5.40;99.90
12089;DHT22;6107;49.078;8.578;2023-04-03T00:34:57;5.30;99.90
12089;DHT22;6107;49.078;8.578;2023-04-03T00:37:23;5.30;99.90
12089;DHT22;6107;49.078;8.578;2023-04-03T00:39:49;5.30;99.90
12089;DHT22;6107;49.078;8.578;2023-04-03T00:42:14;5.30;99.90
12089;DHT22;6107;49.078;8.578;2023-04-03T00:47:08;5.30;99.90
12089;DHT22;6107;49.078;8.578;2023-04-03T00:49:34;5.40;99.90
12089;DHT22;6107;49.078;8.578;2023-04-03T00:52:01;5.30;99.90
12089;DHT22;6107;49.078;8.578;2023-04-03T00:54:27;5.40;99.90
12089;DHT22;6107;49.078;8.578;2023-04-03T00:56:54;5.40;99.90
12089;DHT22;6107;49.078;8.578;2023-04-03T00:59:29;5.40;99.90
12089;DHT22;6107;49.078;8.578;2023-04-03T01:01:55;5.40;99.90
12089;DHT22;6107;49.078;8.578;2023-04-03T01:04:33;5.40;99.90
12089;DHT22;6107;49.078;8.578;2023-04-03T01:07:06;5.20;99.90
12089;DHT22;6107;49.078;8.578;2023-04-03T01:09:33;5.30;99.90
12089;DHT22;6107;49.078;8.578;2023-04-03T01:12:26;5.50;99.90
12089;DHT22;6107;49.078;8.578;2023-04-03T01:15:05;5.40;99.90
12089;DHT22;6107;49.078;8.578;2023-04-03T01:25:44;5.20;99.90
12089;DHT22;6107;49.078;8.578;2023-04-03T01:28:22;5.30;99.90
12089;DHT22;6107;49.078;8.578;2023-04-03T01:33:33;5.10;99.90
12089;DHT22;6107;49.078;8.578;2023-04-03T01:35:58;5.30;99.90
12089;DHT22;6107;49.078;8.578;2023-04-03T01:38:24;5.20;99.90
12089;DHT22;6107;49.078;8.578;2023-04-03T01:40:49;5.20;99.90
12089;DHT22;6107;49.078;8.578;2023-04-03T01:43:15;5.20;99.90
12089;DHT22;6107;49.078;8.578;2023-04-03T01:45:41;5.30;99.90
12089;DHT22;6107;49.078;8.578;2023-04-03T01:48:06;5.20;99.90
12089;DHT22;6107;49.078;8.578;2023-04-03T01:50:32;5.10;99.90
12089;DHT22;6107;49.078;8.578;2023-04-03T01:52:57;5.10;99.90
12089;DHT22;6107;49.078;8.578;2023-04-03T01:55:23;5.10;99.90
12089;DHT22;6107;49.078;8.578;2023-04-03T01:57:48;5.10;99.90
12089;DHT22;6107;49.078;8.578;2023-04-03T02:00:14;5.10;99.90
12089;DHT22;6107;49.078;8.578;2023-04-03T02:02:40;5.00;99.90
12089;DHT22;6107;49.078;8.578;2023-04-03T02:05:06;4.90;99.90
12089;DHT22;6107;49.078;8.578;2023-04-03T02:07:31;4.80;99.90
12089;DHT22;6107;49.078;8.578;2023-04-03T02:09:57;4.80;99.90
12089;DHT22;6107;49.078;8.578;2023-04-03T02:12:22;5.00;99.90
12089;DHT22;6107;49.078;8.578;2023-04-03T02:14:48;4.80;99.90
12089;DHT22;6107;49.078;8.578;2023-04-03T02:17:13;4.70;99.90
12089;DHT22;6107;49.078;8.578;2023-04-03T02:19:39;4.60;99.90
12089;DHT22;6107;49.078;8.578;2023-04-03T02:22:05;4.60;99.90
12089;DHT22;6107;49.078;8.578;2023-04-03T02:24:31;4.70;99.90
12089;DHT22;6107;49.078;8.578;2023-04-03T02:26:56;4.60;99.90
12089;DHT22;6107;49.078;8.578;2023-04-03T02:29:22;4.50;99.90
12089;DHT22;6107;49.078;8.578;2023-04-03T02:31:49;4.70;99.90
12089;DHT22;6107;49.078;8.578;2023-04-03T02:34:14;4.60;99.90
12089;DHT22;6107;49.078;8.578;2023-04-03T02:36:40;4.50;99.90
12089;DHT22;6107;49.078;8.578;2023-04-03T02:39:05;4.60;99.90
12089;DHT22;6107;49.078;8.578;2023-04-03T02:41:31;4.50;99.90
12089;DHT22;6107;49.078;8.578;2023-04-03T02:44:07;4.40;99.90
12089;DHT22;6107;49.078;8.578;2023-04-03T02:46:34;4.40;99.90
12089;DHT22;6107;49.078;8.578;2023-04-03T02:49:00;4.20;99.90
12089;DHT22;6107;49.078;8.578;2023-04-03T02:51:25;4.10;99.90
12089;DHT22;6107;49.078;8.578;2023-04-03T02:53:51;4.20;99.90
12089;DHT22;6107;49.078;8.578;2023-04-03T02:56:17;4.20;99.90
12089;DHT22;6107;49.078;8.578;2023-04-03T02:58:44;4.10;99.90
12089;DHT22;6107;49.078;8.578;2023-04-03T03:01:09;4.20;99.90
12089;DHT22;6107;49.078;8.578;2023-04-03T03:03:35;4.10;99.90
12089;DHT22;6107;49.078;8.578;2023-04-03T03:06:10;4.30;99.90
12089;DHT22;6107;49.078;8.578;2023-04-03T03:08:36;4.40;99.90
12089;DHT22;6107;49.078;8.578;2023-04-03T03:11:02;4.30;99.90
12089;DHT22;6107;49.078;8.578;2023-04-03T03:13:27;4.60;99.90
12089;DHT22;6107;49.078;8.578;2023-04-03T03:15:53;4.60;99.90
12089;DHT22;6107;49.078;8.578;2023-04-03T03:18:19;4.60;99.90
12089;DHT22;6107;49.078;8.578;2023-04-03T03:20:44;4.50;99.90
12089;DHT22;6107;49.078;8.578;2023-04-03T03:23:10;4.40;99.90
12089;DHT22;6107;49.078;8.578;2023-04-03T03:25:40;4.30;99.90
12089;DHT22;6107;49.078;8.578;2023-04-03T03:28:06;4.30;99.90
12089;DHT22;6107;49.078;8.578;2023-04-03T03:30:32;4.20;99.90
12089;DHT22;6107;49.078;8.578;2023-04-03T03:32:58;4.00;99.90
12089;DHT22;6107;49.078;8.578;2023-04-03T03:35:24;3.90;99.90
12089;DHT22;6107;49.078;8.578;2023-04-03T03:37:49;3.80;99.90
12089;DHT22;6107;49.078;8.578;2023-04-03T03:40:15;4.00;99.90
12089;DHT22;6107;49.078;8.578;2023-04-03T03:42:41;4.10;99.90
12089;DHT22;6107;49.078;8.578;2023-04-03T03:45:07;4.20;99.90
12089;DHT22;6107;49.078;8.578;2023-04-03T03:47:33;4.10;99.90
12089;DHT22;6107;49.078;8.578;2023-04-03T03:49:58;3.90;99.90
12089;DHT22;6107;49.078;8.578;2023-04-03T03:52:24;4.10;99.90
12089;DHT22;6107;49.078;8.578;2023-04-03T03:54:50;4.30;99.90
12089;DHT22;6107;49.078;8.578;2023-04-03T03:57:15;4.20;99.90
12089;DHT22;6107;49.078;8.578;2023-04-03T03:59:41;4.20;99.90
12089;DHT22;6107;49.078;8.578;2023-04-03T04:02:07;4.20;99.90
12089;DHT22;6107;49.078;8.578;2023-04-03T04:04:33;4.20;99.90
12089;DHT22;6107;49.078;8.578;2023-04-03T04:06:59;4.30;99.90
12089;DHT22;6107;49.078;8.578;2023-04-03T04:09:26;4.30;99.90
12089;DHT22;6107;49.078;8.578;2023-04-03T04:11:51;4.40;99.90
12089;DHT22;6107;49.078;8.578;2023-04-03T04:14:17;4.40;99.90
12089;DHT22;6107;49.078;8.578;2023-04-03T04:16:43;4.40;99.90
12089;DHT22;6107;49.078;8.578;2023-04-03T04:19:08;4.50;99.90
12089;DHT22;6107;49.078;8.578;2023-04-03T04:21:34;4.60;99.90
12089;DHT22;6107;49.078;8.578;2023-04-03T04:23:59;4.70;99.90
12089;DHT22;6107;49.078;8.578;2023-04-03T04:26:25;4.70;99.90
12089;DHT22;6107;49.078;8.578;2023-04-03T04:28:51;4.70;99.90
12089;DHT22;6107;49.078;8.578;2023-04-03T04:31:16;4.50;99.90
12089;DHT22;6107;49.078;8.578;2023-04-03T04:33:42;4.50;99.90
12089;DHT22;6107;49.078;8.578;2023-04-03T04:36:07;4.50;99.90
12089;DHT22;6107;49.078;8.578;2023-04-03T04:38:33;4.30;99.90
12089;DHT22;6107;49.078;8.578;2023-04-03T04:40:58;4.20;99.90
12089;DHT22;6107;49.078;8.578;2023-04-03T04:43:24;4.30;99.90
12089;DHT22;6107;49.078;8.578;2023-04-03T04:46:03;4.10;99.90
12089;DHT22;6107;49.078;8.578;2023-04-03T04:48:29;4.10;99.90
12089;DHT22;6107;49.078;8.578;2023-04-03T04:50:55;4.00;99.90
12089;DHT22;6107;49.078;8.578;2023-04-03T04:53:21;4.00;99.90
12089;DHT22;6107;49.078;8.578;2023-04-03T04:55:46;3.90;99.90
12089;DHT22;6107;49.078;8.578;2023-04-03T04:58:12;3.80;99.90
12089;DHT22;6107;49.078;8.578;2023-04-03T05:00:37;3.60;99.90
12089;DHT22;6107;49.078;8.578;2023-04-03T05:03:03;3.50;99.90
12089;DHT22;6107;49.078;8.578;2023-04-03T05:05:28;3.30;99.90
12089;DHT22;6107;49.078;8.578;2023-04-03T05:07:54;3.40;99.90
12089;DHT22;6107;49.078;8.578;2023-04-03T05:10:19;3.50;99.90
12089;DHT22;6107;49.078;8.578;2023-04-03T05:12:45;3.40;99.90
12089;DHT22;6107;49.078;8.578;2023-04-03T05:15:11;3.40;99.90
12089;DHT22;6107;49.078;8.578;2023-04-03T05:17:37;3.30;99.90
12089;DHT22;6107;49.078;8.578;2023-04-03T05:20:03;3.30;99.90
12089;DHT22;6107;49.078;8.578;2023-04-03T05:22:29;3.20;99.90
12089;DHT22;6107;49.078;8.578;2023-04-03T05:24:55;3.30;99.90
12089;DHT22;6107;49.078;8.578;2023-04-03T05:27:21;3.40;99.90
12089;DHT22;6107;49.078;8.578;2023-04-03T05:29:48;3.40;99.90
12089;DHT22;6107;49.078;8.578;2023-04-03T05:32:14;3.30;99.90
12089;DHT22;6107;49.078;8.578;2023-04-03T05:34:39;3.50;99.90
12089;DHT22;6107;49.078;8.578;2023-04-03T05:37:05;3.60;99.90
12089;DHT22;6107;49.078;8.578;2023-04-03T05:39:30;3.60;99.90
12089;DHT22;6107;49.078;8.578;2023-04-03T05:41:57;3.60;99.90
12089;DHT22;6107;49.078;8.578;2023-04-03T05:44:22;3.60;99.90
12089;DHT22;6107;49.078;8.578;2023-04-03T05:46:48;3.70;99.90
12089;DHT22;6107;49.078;8.578;2023-04-03T05:49:13;3.70;99.90
12089;DHT22;6107;49.078;8.578;2023-04-03T05:51:39;3.80;99.90
12089;DHT22;6107;49.078;8.578;2023-04-03T05:54:12;3.70;99.90
12089;DHT22;6107;49.078;8.578;2023-04-03T05:56:38;3.60;99.90
12089;DHT22;6107;49.078;8.578;2023-04-03T05:59:04;4.00;99.90
12089;DHT22;6107;49.078;8.578;2023-04-03T06:01:29;4.10;99.90
12089;DHT22;6107;49.078;8.578;2023-04-03T06:03:55;4.10;99.90
12089;DHT22;6107;49.078;8.578;2023-04-03T06:06:21;4.10;99.90
12089;DHT22;6107;49.078;8.578;2023-04-03T06:08:47;3.90;99.90
12089;DHT22;6107;49.078;8.578;2023-04-03T06:11:13;4.00;99.90
12089;DHT22;6107;49.078;8.578;2023-04-03T06:13:38;4.20;99.90
12089;DHT22;6107;49.078;8.578;2023-04-03T06:16:05;4.10;99.90
12089;DHT22;6107;49.078;8.578;2023-04-03T06:18:30;4.00;99.90
12089;DHT22;6107;49.078;8.578;2023-04-03T06:20:56;4.00;99.90
12089;DHT22;6107;49.078;8.578;2023-04-03T06:23:23;4.10;99.90
12089;DHT22;6107;49.078;8.578;2023-04-03T06:25:48;4.30;99.90
12089;DHT22;6107;49.078;8.578;2023-04-03T06:28:14;4.30;99.90
12089;DHT22;6107;49.078;8.578;2023-04-03T06:30:40;4.30;99.90
12089;DHT22;6107;49.078;8.578;2023-04-03T06:33:05;4.30;99.90
12089;DHT22;6107;49.078;8.578;2023-04-03T06:35:31;4.40;99.90
12089;DHT22;6107;49.078;8.578;2023-04-03T06:37:56;4.40;99.90
12089;DHT22;6107;49.078;8.578;2023-04-03T06:40:24;4.30;99.90
12089;DHT22;6107;49.078;8.578;2023-04-03T06:42:50;4.50;99.90
12089;DHT22;6107;49.078;8.578;2023-04-03T06:45:16;4.60;99.90
12089;DHT22;6107;49.078;8.578;2023-04-03T06:47:42;4.70;99.90
12089;DHT22;6107;49.078;8.578;2023-04-03T06:50:08;4.60;99.90
12089;DHT22;6107;49.078;8.578;2023-04-03T06:52:36;4.70;99.90
12089;DHT22;6107;49.078;8.578;2023-04-03T06:55:02;4.60;99.90
12089;DHT22;6107;49.078;8.578;2023-04-03T06:57:29;4.80;99.90
12089;DHT22;6107;49.078;8.578;2023-04-03T06:59:54;4.80;99.90
12089;DHT22;6107;49.078;8.578;2023-04-03T07:02:20;4.80;99.90
12089;DHT22;6107;49.078;8.578;2023-04-03T07:04:48;4.70;99.90
12089;DHT22;6107;49.078;8.578;2023-04-03T07:07:13;4.60;99.90
12089;DHT22;6107;49.078;8.578;2023-04-03T07:09:39;4.80;99.90
12089;DHT22;6107;49.078;8.578;2023-04-03T07:12:04;4.90;99.90
12089;DHT22;6107;49.078;8.578;2023-04-03T07:14:30;5.00;99.90
12089;DHT22;6107;49.078;8.578;2023-04-03T07:16:55;5.00;99.90
12089;DHT22;6107;49.078;8.578;2023-04-03T07:19:21;5.10;99.90
12089;DHT22;6107;49.078;8.578;2023-04-03T07:21:47;5.20;99.90
12089;DHT22;6107;49.078;8.578;2023-04-03T07:24:12;5.20;99.90
12089;DHT22;6107;49.078;8.578;2023-04-03T07:26:38;5.20;99.90
12089;DHT22;6107;49.078;8.578;2023-04-03T07:29:04;5.30;99.90
12089;DHT22;6107;49.078;8.578;2023-04-03T07:31:29;5.40;99.90
12089;DHT22;6107;49.078;8.578;2023-04-03T07:33:56;5.40;99.90
12089;DHT22;6107;49.078;8.578;2023-04-03T07:36:22;5.60;99.90
12089;DHT22;6107;49.078;8.578;2023-04-03T07:38:48;5.40;99.90
12089;DHT22;6107;49.078;8.578;2023-04-03T07:41:18;5.50;99.90
12089;DHT22;6107;49.078;8.578;2023-04-03T07:43:45;5.70;99.90
12089;DHT22;6107;49.078;8.578;2023-04-03T07:46:11;5.80;99.90
12089;DHT22;6107;49.078;8.578;2023-04-03T07:48:37;5.90;99.90
12089;DHT22;6107;49.078;8.578;2023-04-03T07:51:04;6.00;99.90
12089;DHT22;6107;49.078;8.578;2023-04-03T07:53:30;6.00;99.90
12089;DHT22;6107;49.078;8.578;2023-04-03T07:55:57;6.00;99.90
12089;DHT22;6107;49.078;8.578;2023-04-03T07:58:22;6.10;99.90
12089;DHT22;6107;49.078;8.578;2023-04-03T08:00:48;6.20;99.90
12089;DHT22;6107;49.078;8.578;2023-04-03T08:03:14;6.20;99.90
12089;DHT22;6107;49.078;8.578;2023-04-03T08:05:42;6.30;99.90
12089;DHT22;6107;49.078;8.578;2023-04-03T08:08:10;6.60;99.90
12089;DHT22;6107;49.078;8.578;2023-04-03T08:10:37;6.80;99.90
12089;DHT22;6107;49.078;8.578;2023-04-03T08:13:03;6.80;99.90
12089;DHT22;6107;49.078;8.578;2023-04-03T08:15:30;6.70;99.90
12089;DHT22;6107;49.078;8.578;2023-04-03T08:17:56;6.70;99.90
12089;DHT22;6107;49.078;8.578;2023-04-03T08:20:21;6.90;99.90
12089;DHT22;6107;49.078;8.578;2023-04-03T08:22:47;7.50;99.90
12089;DHT22;6107;49.078;8.578;2023-04-03T08:25:13;7.30;99.90
12089;DHT22;6107;49.078;8.578;2023-04-03T08:27:38;7.30;99.90
12089;DHT22;6107;49.078;8.578;2023-04-03T08:30:04;7.40;99.90
12089;DHT22;6107;49.078;8.578;2023-04-03T08:32:30;7.40;99.90
12089;DHT22;6107;49.078;8.578;2023-04-03T08:34:56;7.70;99.90
12089;DHT22;6107;49.078;8.578;2023-04-03T08:37:21;7.70;99.90
12089;DHT22;6107;49.078;8.578;2023-04-03T08:39:47;7.90;99.90
12089;DHT22;6107;49.078;8.578;2023-04-03T08:45:02;8.30;99.90
12089;DHT22;6107;49.078;8.578;2023-04-03T08:47:57;8.40;99.90
12089;DHT22;6107;49.078;8.578;2023-04-03T08:50:33;8.60;99.90
12089;DHT22;6107;49.078;8.578;2023-04-03T08:53:01;8.40;99.90
12089;DHT22;6107;49.078;8.578;2023-04-03T08:55:36;8.30;99.90
12089;DHT22;6107;49.078;8.578;2023-04-03T08:58:04;8.40;99.90
12089;DHT22;6107;49.078;8.578;2023-04-03T09:00:38;8.90;99.90
12089;DHT22;6107;49.078;8.578;2023-04-03T09:03:12;9.00;99.90
12089;DHT22;6107;49.078;8.578;2023-04-03T09:08:22;8.90;99.90
12089;DHT22;6107;49.078;8.578;2023-04-03T09:10:49;9.40;99.90
12089;DHT22;6107;49.078;8.578;2023-04-03T09:13:33;9.40;99.90
12089;DHT22;6107;49.078;8.578;2023-04-03T09:16:03;9.60;99.90
12089;DHT22;6107;49.078;8.578;2023-04-03T09:18:41;9.60;99.90
12089;DHT22;6107;49.078;8.578;2023-04-03T09:21:24;9.80;99.90
12089;DHT22;6107;49.078;8.578;2023-04-03T09:23:53;9.50;99.90
12089;DHT22;6107;49.078;8.578;2023-04-03T09:26:24;8.60;99.90
12089;DHT22;6107;49.078;8.578;2023-04-03T09:28:57;8.20;99.90
12089;DHT22;6107;49.078;8.578;2023-04-03T09:31:27;8.00;99.90
12089;DHT22;6107;49.078;8.578;2023-04-03T09:33:58;8.00;99.90
12089;DHT22;6107;49.078;8.578;2023-04-03T09:36:44;8.00;99.90
12089;DHT22;6107;49.078;8.578;2023-04-03T09:39:22;7.90;99.90
12089;DHT22;6107;49.078;8.578;2023-04-03T09:41:57;7.60;99.90
12089;DHT22;6107;49.078;8.578;2023-04-03T09:44:32;7.40;99.90
12089;DHT22;6107;49.078;8.578;2023-04-03T09:46:59;7.50;99.90
12089;DHT22;6107;49.078;8.578;2023-04-03T09:49:26;7.50;99.90
12089;DHT22;6107;49.078;8.578;2023-04-03T09:51:51;7.80;99.90
12089;DHT22;6107;49.078;8.578;2023-04-03T09:54:34;7.80;99.90
12089;DHT22;6107;49.078;8.578;2023-04-03T09:57:09;8.10;99.90
12089;DHT22;6107;49.078;8.578;2023-04-03T09:59:37;8.80;99.90
12089;DHT22;6107;49.078;8.578;2023-04-03T10:02:32;9.60;99.90
12089;DHT22;6107;49.078;8.578;2023-04-03T10:04:59;10.20;99.90
12089;DHT22;6107;49.078;8.578;2023-04-03T10:07:36;10.40;99.90
12089;DHT22;6107;49.078;8.578;2023-04-03T10:10:17;10.50;99.90
12089;DHT22;6107;49.078;8.578;2023-04-03T10:12:43;10.70;99.90
12089;DHT22;6107;49.078;8.578;2023-04-03T10:15:14;10.90;99.90
12089;DHT22;6107;49.078;8.578;2023-04-03T10:18:02;11.60;99.90
12089;DHT22;6107;49.078;8.578;2023-04-03T10:20:33;11.60;99.90
12089;DHT22;6107;49.078;8.578;2023-04-03T10:28:57;9.30;99.90
12089;DHT22;6107;49.078;8.578;2023-04-03T10:31:49;9.20;99.90
12089;DHT22;6107;49.078;8.578;2023-04-03T10:34:29;8.90;99.90
12089;DHT22;6107;49.078;8.578;2023-04-03T10:39:57;9.30;99.90
12089;DHT22;6107;49.078;8.578;2023-04-03T10:48:01;9.30;99.90
12089;DHT22;6107;49.078;8.578;2023-04-03T10:50:35;9.30;99.90
12089;DHT22;6107;49.078;8.578;2023-04-03T10:53:43;9.00;99.90
12089;DHT22;6107;49.078;8.578;2023-04-03T10:56:42;8.90;99.90
12089;DHT22;6107;49.078;8.578;2023-04-03T10:59:26;8.80;99.90
12089;DHT22;6107;49.078;8.578;2023-04-03T11:01:59;8.90;99.90
12089;DHT22;6107;49.078;8.578;2023-04-03T11:04:28;8.90;99.90
12089;DHT22;6107;49.078;8.578;2023-04-03T11:07:00;8.90;99.90
12089;DHT22;6107;49.078;8.578;2023-04-03T11:09:41;8.70;99.90
12089;DHT22;6107;49.078;8.578;2023-04-03T11:12:27;9.00;99.90
12089;DHT22;6107;49.078;8.578;2023-04-03T11:14:55;8.90;99.90
12089;DHT22;6107;49.078;8.578;2023-04-03T11:17:30;9.00;99.90
12089;DHT22;6107;49.078;8.578;2023-04-03T11:22:39;9.00;99.90
12089;DHT22;6107;49.078;8.578;2023-04-03T11:30:14;8.80;99.90
12089;DHT22;6107;49.078;8.578;2023-04-03T11:35:42;9.00;99.90
12089;DHT22;6107;49.078;8.578;2023-04-03T11:38:19;9.00;99.90
12089;DHT22;6107;49.078;8.578;2023-04-03T11:40:47;8.90;99.90
12089;DHT22;6107;49.078;8.578;2023-04-03T11:43:28;8.60;99.90
12089;DHT22;6107;49.078;8.578;2023-04-03T11:50:54;9.10;99.90
12089;DHT22;6107;49.078;8.578;2023-04-03T11:53:38;9.00;99.90
12089;DHT22;6107;49.078;8.578;2023-04-03T12:04:11;8.50;99.90
12089;DHT22;6107;49.078;8.578;2023-04-03T12:11:55;9.00;99.90
12089;DHT22;6107;49.078;8.578;2023-04-03T12:14:23;9.10;99.90
12089;DHT22;6107;49.078;8.578;2023-04-03T12:16:50;9.40;99.90
12089;DHT22;6107;49.078;8.578;2023-04-03T12:29:38;9.40;99.90
12089;DHT22;6107;49.078;8.578;2023-04-03T12:46:03;9.20;99.90
12089;DHT22;6107;49.078;8.578;2023-04-03T12:48:31;9.10;99.90
12089;DHT22;6107;49.078;8.578;2023-04-03T12:50:59;8.90;99.90
12089;DHT22;6107;49.078;8.578;2023-04-03T12:53:31;8.70;99.90
12089;DHT22;6107;49.078;8.578;2023-04-03T12:56:29;8.90;99.90
12089;DHT22;6107;49.078;8.578;2023-04-03T12:59:19;9.00;99.90
12089;DHT22;6107;49.078;8.578;2023-04-03T13:01:54;9.20;99.90
12089;DHT22;6107;49.078;8.578;2023-04-03T13:04:20;9.10;99.90
12089;DHT22;6107;49.078;8.578;2023-04-03T13:06:46;9.00;99.90
12089;DHT22;6107;49.078;8.578;2023-04-03T13:09:29;9.20;99.90
12089;DHT22;6107;49.078;8.578;2023-04-03T13:12:24;9.20;99.90
12089;DHT22;6107;49.078;8.578;2023-04-03T13:14:58;9.50;99.90
12089;DHT22;6107;49.078;8.578;2023-04-03T13:17:25;9.80;99.90
12089;DHT22;6107;49.078;8.578;2023-04-03T13:19:51;9.60;99.90
12089;DHT22;6107;49.078;8.578;2023-04-03T13:22:33;9.50;99.90
12089;DHT22;6107;49.078;8.578;2023-04-03T13:25:06;10.30;99.90
12089;DHT22;6107;49.078;8.578;2023-04-03T13:27:32;10.20;99.90
12089;DHT22;6107;49.078;8.578;2023-04-03T13:30:00;10.00;99.90
12089;DHT22;6107;49.078;8.578;2023-04-03T13:32:28;11.00;99.90
12089;DHT22;6107;49.078;8.578;2023-04-03T13:34:54;11.10;99.90
12089;DHT22;6107;49.078;8.578;2023-04-03T13:37:23;10.50;99.90
12089;DHT22;6107;49.078;8.578;2023-04-03T13:39:59;10.40;99.90
12089;DHT22;6107;49.078;8.578;2023-04-03T13:42:27;9.80;99.90
12089;DHT22;6107;49.078;8.578;2023-04-03T13:47:44;10.00;99.90
12089;DHT22;6107;49.078;8.578;2023-04-03T13:50:25;9.80;99.90
12089;DHT22;6107;49.078;8.578;2023-04-03T13:53:02;9.90;99.90
12089;DHT22;6107;49.078;8.578;2023-04-03T13:55:34;10.40;99.90
12089;DHT22;6107;49.078;8.578;2023-04-03T13:58:19;10.80;99.90
12089;DHT22;6107;49.078;8.578;2023-04-03T14:03:31;9.80;99.90
12089;DHT22;6107;49.078;8.578;2023-04-03T14:05:58;9.20;99.90
12089;DHT22;6107;49.078;8.578;2023-04-03T14:08:23;9.10;99.90
12089;DHT22;6107;49.078;8.578;2023-04-03T14:10:50;9.20;99.90
12089;DHT22;6107;49.078;8.578;2023-04-03T14:13:18;9.30;99.90
12089;DHT22;6107;49.078;8.578;2023-04-03T14:15:45;9.60;99.90
12089;DHT22;6107;49.078;8.578;2023-04-03T14:18:13;9.50;99.90
12089;DHT22;6107;49.078;8.578;2023-04-03T14:20:38;9.40;99.90
12089;DHT22;6107;49.078;8.578;2023-04-03T14:23:04;9.20;99.90
12089;DHT22;6107;49.078;8.578;2023-04-03T14:25:30;9.10;99.90
12089;DHT22;6107;49.078;8.578;2023-04-03T14:27:56;9.00;99.90
12089;DHT22;6107;49.078;8.578;2023-04-03T14:30:31;9.10;99.90
12089;DHT22;6107;49.078;8.578;2023-04-03T14:32:57;9.10;99.90
12089;DHT22;6107;49.078;8.578;2023-04-03T14:35:23;9.10;99.90
12089;DHT22;6107;49.078;8.578;2023-04-03T14:37:51;9.00;99.90
12089;DHT22;6107;49.078;8.578;2023-04-03T14:40:27;9.20;99.90
12089;DHT22;6107;49.078;8.578;2023-04-03T14:42:53;9.10;99.90
12089;DHT22;6107;49.078;8.578;2023-04-03T14:45:23;10.10;99.90
12089;DHT22;6107;49.078;8.578;2023-04-03T14:47:51;10.00;99.90
12089;DHT22;6107;49.078;8.578;2023-04-03T14:50:21;10.00;99.90
12089;DHT22;6107;49.078;8.578;2023-04-03T14:52:47;10.10;99.90
12089;DHT22;6107;49.078;8.578;2023-04-03T14:55:16;9.90;99.90
12089;DHT22;6107;49.078;8.578;2023-04-03T14:57:43;9.80;99.90
12089;DHT22;6107;49.078;8.578;2023-04-03T15:00:17;9.30;99.90
12089;DHT22;6107;49.078;8.578;2023-04-03T15:02:44;10.20;99.90
12089;DHT22;6107;49.078;8.578;2023-04-03T15:05:11;10.90;99.90
12089;DHT22;6107;49.078;8.578;2023-04-03T15:07:40;11.20;99.90
12089;DHT22;6107;49.078;8.578;2023-04-03T15:12:42;10.50;99.90
12089;DHT22;6107;49.078;8.578;2023-04-03T15:15:09;10.20;99.90
12089;DHT22;6107;49.078;8.578;2023-04-03T15:17:35;9.70;99.90
12089;DHT22;6107;49.078;8.578;2023-04-03T15:20:02;9.30;99.90
12089;DHT22;6107;49.078;8.578;2023-04-03T15:22:28;9.00;99.90
12089;DHT22;6107;49.078;8.578;2023-04-03T15:24:53;9.40;99.90
12089;DHT22;6107;49.078;8.578;2023-04-03T16:01:50;11.70;99.90
12089;DHT22;6107;49.078;8.578;2023-04-03T16:04:17;11.90;99.90
12089;DHT22;6107;49.078;8.578;2023-04-03T16:06:43;11.40;99.90
12089;DHT22;6107;49.078;8.578;2023-04-03T16:09:09;11.50;99.90
12089;DHT22;6107;49.078;8.578;2023-04-03T16:11:35;10.70;99.90
12089;DHT22;6107;49.078;8.578;2023-04-03T16:14:02;10.60;99.90
12089;DHT22;6107;49.078;8.578;2023-04-03T16:16:28;10.30;99.90
12089;DHT22;6107;49.078;8.578;2023-04-03T16:18:55;10.50;99.90
12089;DHT22;6107;49.078;8.578;2023-04-03T16:21:21;10.60;99.90
12089;DHT22;6107;49.078;8.578;2023-04-03T16:23:47;10.70;99.90
12089;DHT22;6107;49.078;8.578;2023-04-03T16:26:13;10.30;99.90
12089;DHT22;6107;49.078;8.578;2023-04-03T16:28:39;10.70;99.90
12089;DHT22;6107;49.078;8.578;2023-04-03T16:31:06;10.30;99.90
12089;DHT22;6107;49.078;8.578;2023-04-03T16:33:31;10.60;99.90
12089;DHT22;6107;49.078;8.578;2023-04-03T16:35:57;10.10;99.90
12089;DHT22;6107;49.078;8.578;2023-04-03T16:38:22;9.70;99.90
12089;DHT22;6107;49.078;8.578;2023-04-03T16:40:49;9.60;99.90
12089;DHT22;6107;49.078;8.578;2023-04-03T16:43:15;9.80;99.90
12089;DHT22;6107;49.078;8.578;2023-04-03T16:45:41;9.50;99.90
12089;DHT22;6107;49.078;8.578;2023-04-03T16:48:07;9.10;99.90
12089;DHT22;6107;49.078;8.578;2023-04-03T16:50:33;9.10;99.90
12089;DHT22;6107;49.078;8.578;2023-04-03T16:52:58;9.10;99.90
12089;DHT22;6107;49.078;8.578;2023-04-03T16:55:24;8.90;99.90
12089;DHT22;6107;49.078;8.578;2023-04-03T16:57:50;8.50;99.90
12089;DHT22;6107;49.078;8.578;2023-04-03T17:00:16;8.60;99.90
12089;DHT22;6107;49.078;8.578;2023-04-03T17:02:42;8.80;99.90
12089;DHT22;6107;49.078;8.578;2023-04-03T17:05:07;8.50;99.90
12089;DHT22;6107;49.078;8.578;2023-04-03T17:07:33;8.20;99.90
12089;DHT22;6107;49.078;8.578;2023-04-03T17:09:59;7.90;99.90
12089;DHT22;6107;49.078;8.578;2023-04-03T17:12:25;8.00;99.90
12089;DHT22;6107;49.078;8.578;2023-04-03T17:14:50;8.10;99.90
12089;DHT22;6107;49.078;8.578;2023-04-03T17:17:21;8.00;99.90
12089;DHT22;6107;49.078;8.578;2023-04-03T17:19:47;8.00;99.90
12089;DHT22;6107;49.078;8.578;2023-04-03T17:22:12;8.00;99.90
12089;DHT22;6107;49.078;8.578;2023-04-03T17:24:38;8.00;99.90
12089;DHT22;6107;49.078;8.578;2023-04-03T17:27:04;7.80;99.90
12089;DHT22;6107;49.078;8.578;2023-04-03T17:29:29;7.70;99.90
12089;DHT22;6107;49.078;8.578;2023-04-03T17:31:55;7.70;99.90
12089;DHT22;6107;49.078;8.578;2023-04-03T17:34:21;7.70;99.90
12089;DHT22;6107;49.078;8.578;2023-04-03T17:36:47;7.60;99.90
12089;DHT22;6107;49.078;8.578;2023-04-03T17:39:12;7.60;99.90
12089;DHT22;6107;49.078;8.578;2023-04-03T17:41:38;7.40;99.90
12089;DHT22;6107;49.078;8.578;2023-04-03T17:44:04;7.30;99.90
12089;DHT22;6107;49.078;8.578;2023-04-03T17:46:30;7.20;99.90
12089;DHT22;6107;49.078;8.578;2023-04-03T17:48:55;7.20;99.90
12089;DHT22;6107;49.078;8.578;2023-04-03T17:51:24;7.10;99.90
12089;DHT22;6107;49.078;8.578;2023-04-03T17:53:50;7.30;99.90
12089;DHT22;6107;49.078;8.578;2023-04-03T17:56:19;7.40;99.90
12089;DHT22;6107;49.078;8.578;2023-04-03T17:58:46;7.20;99.90
12089;DHT22;6107;49.078;8.578;2023-04-03T18:01:15;7.30;99.90
12089;DHT22;6107;49.078;8.578;2023-04-03T18:03:41;7.00;99.90
12089;DHT22;6107;49.078;8.578;2023-04-03T18:06:09;7.00;99.90
12089;DHT22;6107;49.078;8.578;2023-04-03T18:08:39;6.80;99.90
12089;DHT22;6107;49.078;8.578;2023-04-03T18:11:05;6.90;99.90
12089;DHT22;6107;49.078;8.578;2023-04-03T18:13:31;6.70;99.90
12089;DHT22;6107;49.078;8.578;2023-04-03T18:15:57;6.70;99.90